createdAt,value
2022-09-26T00:01:19.662Z,20.00
2022-09-26T00:03:21.769Z,20.47
2022-09-26T00:05:23.378Z,20.17
2022-09-26T00:07:25.040Z,21.30
2022-09-26T00:09:27.858Z,19.67
2022-09-26T00:11:32.339Z,18.50
2022-09-26T00:13:36.874Z,18.73
2022-09-26T00:15:39.386Z,17.70
2022-09-26T00:17:41.006Z,18.10
2022-09-26T00:19:43.161Z,18.80
2022-09-26T00:21:45.142Z,19.93
2022-09-26T00:23:47.568Z,19.37
2022-09-26T00:25:51.582Z,20.13
2022-09-26T00:27:53.177Z,21.00
2022-09-26T00:29:54.830Z,20.57
2022-09-26T00:31:56.685Z,22.17
2022-09-26T00:34:00.110Z,20.87
2022-09-26T00:36:02.705Z,21.60
2022-09-26T00:38:05.549Z,19.47
2022-09-26T00:40:07.959Z,23.77
2022-09-26T00:42:15.998Z,21.47
2022-09-26T00:44:48.290Z,22.30
2022-09-26T00:46:51.101Z,22.00
2022-09-26T00:49:20.054Z,22.07
2022-09-26T00:51:23.211Z,23.20
2022-09-26T00:53:30.242Z,22.97
2022-09-26T00:55:36.255Z,22.77
2022-09-26T00:57:52.222Z,22.53
2022-09-26T01:00:00.019Z,21.03
2022-09-26T01:02:02.568Z,23.90
2022-09-26T01:04:06.717Z,22.47
2022-09-26T01:06:09.584Z,20.93
2022-09-26T01:08:13.180Z,18.40
2022-09-26T01:10:16.525Z,20.03
2022-09-26T01:12:20.966Z,19.20
2022-09-26T01:14:24.913Z,19.00
2022-09-26T01:16:27.187Z,19.13
2022-09-26T01:18:29.486Z,19.27
2022-09-26T01:20:50.525Z,18.73
2022-09-26T01:23:15.100Z,17.60
2022-09-26T01:25:54.067Z,18.23
2022-09-26T01:28:04.707Z,18.17
2022-09-26T01:30:26.312Z,17.20
2022-09-26T01:32:53.923Z,16.73
2022-09-26T01:35:21.473Z,17.83
2022-09-26T01:37:42.227Z,16.90
2022-09-26T01:40:02.594Z,16.70
2022-09-26T01:42:36.838Z,15.53
2022-09-26T01:45:11.200Z,16.67
2022-09-26T01:47:28.331Z,16.80
2022-09-26T01:49:44.937Z,16.27
2022-09-26T01:52:00.228Z,16.40
2022-09-26T01:54:05.036Z,16.23
2022-09-26T01:56:17.728Z,18.27
2022-09-26T01:58:23.151Z,16.10
2022-09-26T02:00:25.062Z,16.70
2022-09-26T02:02:32.607Z,17.77
2022-09-26T02:04:42.699Z,15.47
2022-09-26T02:06:51.426Z,18.10
2022-09-26T02:09:00.527Z,18.67
2022-09-26T02:11:06.129Z,17.50
2022-09-26T02:13:23.218Z,17.60
2022-09-26T02:15:27.390Z,19.20
2022-09-26T02:17:37.848Z,18.33
2022-09-26T02:19:43.458Z,18.20
2022-09-26T02:21:45.816Z,18.23
2022-09-26T02:23:53.018Z,17.50
2022-09-26T02:25:54.839Z,18.13
2022-09-26T02:27:57.198Z,20.20
2022-09-26T02:29:59.170Z,19.90
2022-09-26T02:32:17.231Z,19.37
2022-09-26T02:34:18.899Z,19.93
2022-09-26T02:36:21.740Z,17.93
2022-09-26T02:38:32.235Z,20.00
2022-09-26T02:40:57.089Z,19.73
2022-09-26T02:43:40.257Z,21.50
2022-09-26T02:46:02.347Z,20.17
2022-09-26T02:48:09.800Z,21.30
2022-09-26T02:50:25.458Z,22.50
2022-09-26T02:52:49.569Z,18.73
2022-09-26T02:55:16.470Z,17.40
2022-09-26T02:57:44.810Z,18.90
2022-09-26T03:00:09.209Z,15.93
2022-09-26T03:02:26.106Z,17.77
2022-09-26T03:04:39.312Z,16.90
2022-09-26T03:06:46.533Z,17.20
2022-09-26T03:08:50.267Z,17.37
2022-09-26T03:10:54.340Z,16.03
2022-09-26T03:13:03.092Z,15.67
2022-09-26T03:15:07.199Z,14.47
2022-09-26T03:17:09.915Z,14.73
2022-09-26T03:19:27.275Z,12.80
2022-09-26T03:21:31.071Z,13.30
2022-09-26T03:23:35.592Z,13.03
2022-09-26T03:25:38.117Z,11.70
2022-09-26T03:27:43.917Z,12.97
2022-09-26T03:29:45.915Z,13.40
2022-09-26T03:31:50.415Z,13.03
2022-09-26T03:33:54.034Z,13.80
2022-09-26T03:35:56.951Z,13.47
2022-09-26T03:37:58.878Z,12.87
2022-09-26T03:40:03.016Z,14.80
2022-09-26T03:42:05.266Z,14.87
2022-09-26T03:44:07.307Z,13.67
2022-09-26T03:46:09.364Z,14.17
2022-09-26T03:48:11.751Z,14.57
2022-09-26T03:50:15.214Z,14.30
2022-09-26T03:52:17.493Z,16.00
2022-09-26T03:54:19.246Z,15.90
2022-09-26T03:56:21.690Z,17.60
2022-09-26T03:58:24.679Z,16.70
2022-09-26T04:00:27.568Z,16.60
2022-09-26T04:02:29.454Z,13.73
2022-09-26T04:04:32.217Z,14.90
2022-09-26T04:06:33.975Z,14.70
2022-09-26T04:08:40.567Z,13.57
2022-09-26T04:10:44.191Z,13.90
2022-09-26T04:12:45.959Z,14.77
2022-09-26T04:14:47.659Z,14.40
2022-09-26T04:16:49.384Z,14.77
2022-09-26T04:18:59.105Z,14.80
2022-09-26T04:21:10.042Z,15.50
2022-09-26T04:23:11.908Z,16.23
2022-09-26T04:25:14.470Z,16.60
2022-09-26T04:27:16.143Z,17.07
2022-09-26T04:29:18.209Z,17.20
2022-09-26T04:31:21.503Z,18.17
2022-09-26T04:33:23.269Z,18.40
2022-09-26T04:35:25.482Z,17.13
2022-09-26T04:37:27.622Z,17.70
2022-09-26T04:39:29.614Z,17.50
2022-09-26T04:41:32.272Z,17.73
2022-09-26T04:43:35.971Z,15.90
2022-09-26T04:45:42.195Z,15.90
2022-09-26T04:47:44.044Z,13.27
2022-09-26T04:49:47.606Z,12.10
2022-09-26T04:51:49.682Z,11.60
2022-09-26T04:53:53.281Z,12.90
2022-09-26T04:55:55.709Z,11.30
2022-09-26T04:57:58.469Z,10.37
2022-09-26T05:00:02.102Z,10.70
2022-09-26T05:02:05.658Z,9.93
2022-09-26T05:04:08.279Z,11.10
2022-09-26T05:06:11.398Z,10.97
2022-09-26T05:08:14.466Z,11.40
2022-09-26T05:10:16.341Z,11.40
2022-09-26T05:12:19.222Z,14.27
2022-09-26T05:14:21.081Z,15.20
2022-09-26T05:16:25.265Z,15.63
2022-09-26T05:18:28.050Z,16.00
2022-09-26T05:20:31.574Z,15.80
2022-09-26T05:22:35.604Z,17.50
2022-09-26T05:24:59.464Z,17.90
2022-09-26T05:27:01.382Z,16.93
2022-09-26T05:29:08.499Z,16.93
2022-09-26T05:31:10.880Z,16.60
2022-09-26T05:33:13.437Z,17.57
2022-09-26T05:35:15.227Z,17.27
2022-09-26T05:37:17.527Z,16.67
2022-09-26T05:39:42.255Z,17.30
2022-09-26T05:41:44.151Z,17.13
2022-09-26T05:43:49.687Z,19.97
2022-09-26T05:45:51.388Z,22.23
2022-09-26T05:47:53.005Z,22.20
2022-09-26T05:49:54.717Z,19.70
2022-09-26T05:51:57.108Z,24.67
2022-09-26T05:53:59.202Z,23.40
2022-09-26T05:56:01.198Z,21.50
2022-09-26T05:58:03.358Z,22.00
2022-09-26T06:00:05.540Z,19.27
2022-09-26T06:02:09.150Z,19.63
2022-09-26T06:04:11.767Z,17.80
2022-09-26T06:06:19.533Z,19.80
2022-09-26T06:08:21.534Z,17.70
2022-09-26T06:10:23.693Z,17.67
2022-09-26T06:12:28.134Z,17.20
2022-09-26T06:14:29.779Z,16.90
2022-09-26T06:16:32.051Z,16.50
2022-09-26T06:18:37.874Z,15.60
2022-09-26T06:20:39.459Z,15.87
2022-09-26T06:22:43.158Z,14.00
2022-09-26T06:24:45.482Z,14.60
2022-09-26T06:26:47.894Z,12.40
2022-09-26T06:28:55.681Z,11.80
2022-09-26T06:30:57.806Z,12.30
2022-09-26T06:33:01.698Z,11.87
2022-09-26T06:35:05.128Z,11.10
2022-09-26T06:37:10.550Z,10.90
2022-09-26T06:39:12.988Z,8.97
2022-09-26T06:41:18.256Z,8.43
2022-09-26T06:43:19.870Z,8.50
2022-09-26T06:45:22.341Z,7.17
2022-09-26T06:47:24.149Z,5.40
2022-09-26T06:49:26.004Z,5.27
2022-09-26T06:51:28.475Z,6.17
2022-09-26T06:53:30.910Z,6.10
2022-09-26T06:55:33.593Z,5.70
2022-09-26T06:57:41.012Z,4.57
2022-09-26T06:59:42.635Z,4.70
2022-09-26T07:01:46.157Z,4.50
2022-09-26T07:03:47.951Z,4.03
2022-09-26T07:05:49.805Z,4.70
2022-09-26T07:07:53.260Z,5.10
2022-09-26T07:09:57.975Z,4.33
2022-09-26T07:12:15.960Z,4.23
2022-09-26T07:14:22.008Z,4.50
2022-09-26T07:16:23.880Z,4.60
2022-09-26T07:18:26.678Z,3.50
2022-09-26T07:20:34.042Z,3.40
2022-09-26T07:22:37.257Z,4.53
2022-09-26T07:24:39.721Z,3.73
2022-09-26T07:26:42.096Z,3.47
2022-09-26T07:28:44.900Z,3.93
2022-09-26T07:30:47.936Z,3.77
2022-09-26T07:32:50.103Z,3.93
2022-09-26T07:34:53.159Z,3.10
2022-09-26T07:36:55.410Z,3.37
2022-09-26T07:38:58.048Z,3.23
2022-09-26T07:41:02.226Z,3.40
2022-09-26T07:43:19.170Z,2.60
2022-09-26T07:45:42.497Z,3.07
2022-09-26T07:48:03.145Z,3.17
2022-09-26T07:50:13.255Z,3.20
2022-09-26T07:52:14.976Z,2.83
2022-09-26T07:54:18.678Z,3.30
2022-09-26T07:56:23.183Z,2.90
2022-09-26T07:58:27.929Z,3.00
2022-09-26T08:00:31.358Z,2.67
2022-09-26T08:02:35.104Z,2.97
2022-09-26T08:04:36.907Z,3.10
2022-09-26T08:06:38.582Z,3.20
2022-09-26T08:08:41.515Z,3.40
2022-09-26T08:10:43.700Z,3.10
2022-09-26T08:12:46.135Z,3.50
2022-09-26T08:14:49.890Z,3.00
2022-09-26T08:16:55.718Z,2.90
2022-09-26T08:18:58.611Z,3.20
2022-09-26T08:21:05.803Z,3.23
2022-09-26T08:23:10.630Z,2.77
2022-09-26T08:25:12.875Z,3.10
2022-09-26T08:27:15.330Z,3.23
2022-09-26T08:29:18.064Z,3.10
2022-09-26T08:31:21.405Z,2.90
2022-09-26T08:33:25.108Z,3.10
2022-09-26T08:35:41.506Z,2.67
2022-09-26T08:37:43.634Z,2.73
2022-09-26T08:39:49.014Z,3.13
2022-09-26T08:42:23.740Z,2.80
2022-09-26T08:44:38.717Z,2.43
2022-09-26T08:47:02.555Z,2.63
2022-09-26T08:49:24.273Z,2.80
2022-09-26T08:51:42.151Z,2.43
2022-09-26T08:53:52.287Z,2.80
2022-09-26T08:55:57.080Z,2.67
2022-09-26T08:58:17.411Z,2.63
2022-09-26T09:00:26.614Z,2.57
2022-09-26T09:02:39.714Z,3.30
2022-09-26T09:04:52.981Z,2.23
2022-09-26T09:07:05.543Z,2.80
2022-09-26T09:09:08.748Z,2.80
2022-09-26T09:11:13.603Z,2.53
2022-09-26T09:13:23.202Z,2.37
2022-09-26T09:15:30.706Z,2.40
2022-09-26T09:17:59.290Z,2.63
2022-09-26T09:20:22.340Z,2.30
2022-09-26T09:22:32.473Z,2.70
2022-09-26T09:24:56.223Z,2.80
2022-09-26T09:29:56.843Z,2.50
2022-09-26T09:32:03.670Z,3.60
2022-09-26T09:34:10.274Z,2.23
2022-09-26T09:36:17.936Z,3.17
2022-09-26T09:38:28.170Z,2.83
2022-09-26T09:40:40.488Z,2.47
2022-09-26T09:42:57.683Z,2.50
2022-09-26T09:45:31.427Z,1.97
2022-09-26T09:47:38.965Z,2.50
2022-09-26T09:49:42.434Z,2.23
2022-09-26T09:51:56.234Z,2.37
2022-09-26T09:54:16.737Z,2.30
2022-09-26T09:56:27.706Z,2.23
2022-09-26T09:58:41.713Z,2.10
2022-09-26T10:00:52.046Z,2.27
2022-09-26T10:03:02.185Z,2.10
2022-09-26T10:05:23.373Z,2.20
2022-09-26T10:07:25.724Z,1.83
2022-09-26T10:09:36.441Z,1.90
2022-09-26T10:11:46.992Z,1.90
2022-09-26T10:13:56.819Z,2.33
2022-09-26T10:16:05.912Z,2.10
2022-09-26T10:18:24.803Z,2.17
2022-09-26T10:20:40.003Z,2.27
2022-09-26T10:22:45.355Z,2.03
2022-09-26T10:24:47.916Z,1.80
2022-09-26T10:26:52.084Z,2.20
2022-09-26T10:28:57.270Z,1.70
2022-09-26T10:31:07.663Z,1.73
2022-09-26T10:33:25.230Z,1.80
2022-09-26T10:35:41.712Z,2.20
2022-09-26T10:37:43.451Z,1.70
2022-09-26T10:40:11.752Z,1.80
2022-09-26T10:42:20.288Z,1.80
2022-09-26T10:44:35.219Z,1.97
2022-09-26T10:46:36.993Z,1.60
2022-09-26T10:48:52.027Z,1.90
2022-09-26T10:51:00.833Z,1.63
2022-09-26T10:53:11.875Z,1.90
2022-09-26T10:55:20.831Z,1.60
2022-09-26T10:57:29.083Z,1.50
2022-09-26T10:59:32.846Z,2.07
2022-09-26T11:01:41.412Z,1.60
2022-09-26T11:03:46.398Z,1.80
2022-09-26T11:05:57.447Z,1.43
2022-09-26T11:07:59.130Z,1.90
2022-09-26T11:10:06.516Z,1.77
2022-09-26T11:12:29.915Z,1.90
2022-09-26T11:14:34.303Z,1.80
2022-09-26T11:16:53.156Z,1.70
2022-09-26T11:19:06.168Z,1.60
2022-09-26T11:21:29.163Z,1.70
2022-09-26T11:23:44.650Z,1.90
2022-09-26T11:25:58.504Z,2.47
2022-09-26T11:28:10.282Z,1.60
2022-09-26T11:30:15.068Z,1.80
2022-09-26T11:32:24.271Z,1.33
2022-09-26T11:34:31.492Z,1.43
2022-09-26T11:36:47.042Z,1.67
2022-09-26T11:39:31.894Z,1.60
2022-09-26T11:41:45.540Z,1.50
2022-09-26T11:44:23.409Z,1.50
2022-09-26T11:46:57.961Z,1.53
2022-09-26T11:49:21.975Z,1.57
2022-09-26T11:51:45.606Z,1.40
2022-09-26T11:54:04.094Z,1.67
2022-09-26T11:56:27.691Z,1.63
2022-09-26T11:58:59.409Z,1.20
2022-09-26T12:01:17.309Z,1.73
2022-09-26T12:03:56.821Z,1.50
2022-09-26T12:06:01.671Z,1.40
2022-09-26T12:08:41.317Z,1.13
2022-09-26T12:10:57.740Z,1.50
2022-09-26T12:13:05.073Z,1.33
2022-09-26T12:15:15.152Z,1.30
2022-09-26T12:17:41.156Z,1.10
2022-09-26T12:19:55.752Z,1.10
2022-09-26T12:22:29.956Z,1.63
2022-09-26T12:25:05.030Z,1.30
2022-09-26T12:27:31.667Z,1.10
2022-09-26T12:29:48.711Z,1.60
2022-09-26T12:32:47.477Z,1.60
2022-09-26T12:35:11.555Z,1.37
2022-09-26T12:37:49.195Z,1.47
2022-09-26T12:40:00.566Z,1.40
2022-09-26T12:42:39.471Z,1.30
2022-09-26T12:45:07.569Z,1.30
2022-09-26T12:47:57.838Z,1.30
2022-09-26T12:50:31.302Z,1.20
2022-09-26T12:53:02.060Z,1.20
2022-09-26T12:55:24.863Z,1.40
2022-09-26T12:58:04.277Z,1.30
2022-09-26T13:00:23.294Z,1.50
2022-09-26T13:02:56.648Z,1.40
2022-09-26T13:05:27.346Z,1.20
2022-09-26T13:08:02.547Z,1.37
2022-09-26T13:10:36.821Z,1.30
2022-09-26T13:13:00.050Z,1.30
2022-09-26T13:15:36.136Z,1.20
2022-09-26T13:17:45.902Z,1.20
2022-09-26T13:19:53.912Z,1.07
2022-09-26T13:22:02.205Z,1.20
2022-09-26T13:24:13.719Z,1.20
2022-09-26T13:26:25.938Z,1.20
2022-09-26T13:29:00.593Z,1.20
2022-09-26T13:31:31.794Z,1.20
2022-09-26T13:33:41.576Z,1.10
2022-09-26T13:35:47.711Z,1.47
2022-09-26T13:38:09.331Z,1.10
2022-09-26T13:40:31.950Z,1.00
2022-09-26T13:42:48.923Z,0.90
2022-09-26T13:45:24.997Z,0.90
2022-09-26T13:47:46.392Z,0.97
2022-09-26T13:50:09.802Z,1.00
2022-09-26T13:52:34.702Z,1.10
2022-09-26T13:54:45.273Z,0.90
2022-09-26T13:56:49.570Z,0.83
2022-09-26T13:59:04.409Z,1.00
2022-09-26T14:01:28.887Z,1.10
2022-09-26T14:03:38.911Z,0.73
2022-09-26T14:05:52.341Z,0.90
2022-09-26T14:08:13.528Z,1.10
2022-09-26T14:10:20.500Z,0.77
2022-09-26T14:12:55.591Z,1.20
2022-09-26T14:15:16.931Z,0.93
2022-09-26T14:17:44.318Z,0.80
2022-09-26T14:19:54.090Z,1.10
2022-09-26T14:22:18.360Z,1.07
2022-09-26T14:24:41.293Z,0.90
2022-09-26T14:26:44.535Z,1.10
2022-09-26T14:29:10.967Z,1.10
2022-09-26T14:31:25.348Z,1.17
2022-09-26T14:33:28.995Z,1.10
2022-09-26T14:35:34.253Z,1.10
2022-09-26T14:37:42.171Z,1.00
2022-09-26T14:39:45.928Z,1.20
2022-09-26T14:41:47.925Z,1.00
2022-09-26T14:43:54.205Z,1.10
2022-09-26T14:46:05.330Z,1.13
2022-09-26T14:48:20.662Z,1.00
2022-09-26T14:50:36.034Z,1.47
2022-09-26T14:52:38.586Z,1.00
2022-09-26T14:54:42.226Z,0.90
2022-09-26T14:56:48.510Z,1.10
2022-09-26T14:58:51.575Z,1.00
2022-09-26T15:00:55.855Z,1.20
2022-09-26T15:03:00.874Z,0.93
2022-09-26T15:05:11.692Z,0.97
2022-09-26T15:07:22.570Z,1.30
2022-09-26T15:09:33.040Z,1.00
2022-09-26T15:11:49.309Z,0.90
2022-09-26T15:13:53.038Z,1.20
2022-09-26T15:16:32.381Z,0.97
2022-09-26T15:18:44.712Z,1.07
2022-09-26T15:20:54.770Z,1.20
2022-09-26T15:22:58.431Z,1.20
2022-09-26T15:25:20.180Z,1.30
2022-09-26T15:27:29.171Z,0.90
2022-09-26T15:29:31.191Z,1.10
2022-09-26T15:31:44.482Z,0.90
2022-09-26T15:34:04.254Z,1.20
2022-09-26T15:36:07.238Z,1.00
2022-09-26T15:38:11.906Z,1.07
2022-09-26T15:40:18.587Z,1.10
2022-09-26T15:42:42.572Z,0.93
2022-09-26T15:44:56.408Z,1.00
2022-09-26T15:46:58.958Z,1.20
2022-09-26T15:49:00.668Z,1.50
2022-09-26T15:51:02.307Z,1.13
2022-09-26T15:53:20.954Z,2.20
2022-09-26T15:55:28.281Z,1.00
2022-09-26T15:57:30.915Z,1.03
2022-09-26T15:59:41.470Z,0.80
2022-09-26T16:01:48.586Z,1.20
2022-09-26T16:04:13.976Z,1.00
2022-09-26T16:06:29.868Z,1.00
2022-09-26T16:08:37.668Z,1.20
2022-09-26T16:10:39.690Z,1.00
2022-09-26T16:12:41.849Z,0.90
2022-09-26T16:15:16.926Z,1.27
2022-09-26T16:17:37.430Z,1.20
2022-09-26T16:19:54.162Z,1.70
2022-09-26T16:21:56.685Z,2.00
2022-09-26T16:24:01.297Z,1.20
2022-09-26T16:26:03.049Z,1.13
2022-09-26T16:28:11.022Z,4.53
2022-09-26T16:30:25.378Z,1.90
2022-09-26T16:32:31.764Z,1.27
2022-09-26T16:34:33.479Z,1.30
2022-09-26T16:36:42.262Z,1.67
2022-09-26T16:38:51.339Z,1.60
2022-09-26T16:40:56.506Z,1.90
2022-09-26T16:43:12.665Z,1.40
2022-09-26T16:45:15.241Z,1.40
2022-09-26T16:47:44.737Z,1.50
2022-09-26T16:49:48.358Z,1.50
2022-09-26T16:52:13.984Z,1.53
2022-09-26T16:54:21.728Z,1.40
2022-09-26T16:56:25.390Z,1.60
2022-09-26T16:58:29.529Z,1.10
2022-09-26T17:00:53.623Z,1.50
2022-09-26T17:02:56.906Z,1.33
2022-09-26T17:04:58.589Z,1.40
2022-09-26T17:07:05.168Z,1.60
2022-09-26T17:09:24.254Z,1.20
2022-09-26T17:11:26.758Z,1.73
2022-09-26T17:13:32.903Z,1.60
2022-09-26T17:15:35.499Z,1.37
2022-09-26T17:17:38.231Z,1.80
2022-09-26T17:19:41.679Z,2.00
2022-09-26T17:21:45.271Z,6.77
2022-09-26T17:23:49.035Z,3.63
2022-09-26T17:25:56.786Z,1.73
2022-09-26T17:28:02.131Z,1.40
2022-09-26T17:30:09.357Z,1.20
2022-09-26T17:32:35.192Z,1.37
2022-09-26T17:34:37.564Z,1.20
2022-09-26T17:36:47.282Z,1.40
2022-09-26T17:38:50.081Z,1.33
2022-09-26T17:40:51.879Z,1.67
2022-09-26T17:42:56.439Z,1.50
2022-09-26T17:44:58.427Z,1.40
2022-09-26T17:47:00.748Z,1.60
2022-09-26T17:49:05.465Z,1.63
2022-09-26T17:51:11.900Z,1.67
2022-09-26T17:53:20.951Z,1.10
2022-09-26T17:55:24.213Z,1.73
2022-09-26T17:57:30.297Z,1.60
2022-09-26T17:59:33.710Z,1.60
2022-09-26T18:01:35.569Z,1.27
2022-09-26T18:03:40.440Z,1.60
2022-09-26T18:05:43.211Z,1.47
2022-09-26T18:07:46.101Z,1.33
2022-09-26T18:09:51.140Z,1.40
2022-09-26T18:12:01.947Z,1.40
2022-09-26T18:14:08.140Z,1.73
2022-09-26T18:16:11.798Z,1.20
2022-09-26T18:18:17.674Z,1.70
2022-09-26T18:20:23.044Z,1.40
2022-09-26T18:22:31.561Z,1.50
2022-09-26T18:24:33.449Z,1.33
2022-09-26T18:26:51.305Z,1.43
2022-09-26T18:28:55.807Z,2.03
2022-09-26T18:31:00.850Z,1.53
2022-09-26T18:33:04.674Z,1.93
2022-09-26T18:35:24.186Z,1.90
2022-09-26T18:37:26.274Z,1.40
2022-09-26T18:39:29.560Z,1.23
2022-09-26T18:41:31.809Z,1.70
2022-09-26T18:43:40.444Z,1.60
2022-09-26T18:45:43.001Z,1.70
2022-09-26T18:47:45.909Z,1.50
2022-09-26T18:49:47.698Z,1.27
2022-09-26T18:51:50.142Z,1.43
2022-09-26T18:53:51.823Z,1.47
2022-09-26T18:56:12.110Z,1.50
2022-09-26T18:58:28.433Z,1.70
2022-09-26T19:00:30.158Z,1.60
2022-09-26T19:02:39.027Z,1.50
2022-09-26T19:04:40.963Z,1.50
2022-09-26T19:06:45.618Z,1.40
2022-09-26T19:08:52.982Z,1.40
2022-09-26T19:10:55.513Z,1.67
2022-09-26T19:13:00.557Z,1.50
2022-09-26T19:15:05.379Z,1.40
2022-09-26T19:17:07.073Z,1.77
2022-09-26T19:19:08.955Z,1.50
2022-09-26T19:21:32.287Z,1.27
2022-09-26T19:23:36.935Z,1.40
2022-09-26T19:25:39.111Z,1.70
2022-09-26T19:27:49.550Z,1.60
2022-09-26T19:30:06.537Z,1.30
2022-09-26T19:32:23.090Z,1.53
2022-09-26T19:34:28.227Z,1.20
2022-09-26T19:36:33.590Z,1.60
2022-09-26T19:38:35.214Z,1.50
2022-09-26T19:40:37.562Z,1.50
2022-09-26T19:42:39.528Z,1.40
2022-09-26T19:44:42.482Z,1.40
2022-09-26T19:46:46.418Z,1.70
2022-09-26T19:48:48.927Z,1.43
2022-09-26T19:50:52.495Z,1.47
2022-09-26T19:52:58.398Z,1.37
2022-09-26T19:55:01.422Z,1.70
2022-09-26T19:57:03.723Z,1.67
2022-09-26T19:59:06.506Z,1.40
2022-09-26T20:01:18.715Z,1.33
2022-09-26T20:03:39.894Z,1.60
2022-09-26T20:05:42.211Z,1.60
2022-09-26T20:07:45.546Z,1.50
2022-09-26T20:09:47.618Z,1.83
2022-09-26T20:11:49.651Z,1.33
2022-09-26T20:14:10.547Z,1.57
2022-09-26T20:16:12.467Z,1.30
2022-09-26T20:18:23.333Z,1.67
2022-09-26T20:20:26.253Z,1.57
2022-09-26T20:22:28.437Z,1.70
2022-09-26T20:24:32.325Z,1.40
2022-09-26T20:26:35.570Z,1.67
2022-09-26T20:28:37.390Z,1.30
2022-09-26T20:31:00.143Z,1.67
2022-09-26T20:33:02.730Z,1.60
2022-09-26T20:35:05.420Z,1.67
2022-09-26T20:37:10.672Z,1.43
2022-09-26T20:39:17.030Z,2.07
2022-09-26T20:41:31.942Z,1.40
2022-09-26T20:43:37.005Z,1.73
2022-09-26T20:45:40.915Z,1.20
2022-09-26T20:47:44.804Z,1.90
2022-09-26T20:49:52.826Z,1.83
2022-09-26T20:51:57.029Z,1.13
2022-09-26T20:53:59.782Z,1.37
2022-09-26T20:56:03.828Z,2.00
2022-09-26T20:58:06.526Z,1.37
2022-09-26T21:00:17.785Z,1.90
2022-09-26T21:02:25.841Z,1.63
2022-09-26T21:04:32.514Z,1.87
2022-09-26T21:06:35.735Z,1.83
2022-09-26T21:08:37.392Z,2.10
2022-09-26T21:10:39.326Z,1.70
2022-09-26T21:12:42.862Z,1.70
2022-09-26T21:14:44.814Z,1.80
2022-09-26T21:16:52.033Z,2.20
2022-09-26T21:18:53.956Z,1.83
2022-09-26T21:21:03.505Z,1.47
2022-09-26T21:23:05.799Z,1.63
2022-09-26T21:25:14.869Z,1.60
2022-09-26T21:27:17.784Z,1.70
2022-09-26T21:29:19.609Z,1.60
2022-09-26T21:31:33.200Z,1.70
2022-09-26T21:33:35.202Z,1.63
2022-09-26T21:35:38.709Z,1.50
2022-09-26T21:37:43.151Z,1.70
2022-09-26T21:39:44.958Z,1.50
2022-09-26T21:41:49.386Z,1.40
2022-09-26T21:44:01.994Z,1.30
2022-09-26T21:46:03.796Z,1.30
2022-09-26T21:48:05.481Z,1.70
2022-09-26T21:50:08.487Z,1.90
2022-09-26T21:52:22.293Z,2.23
2022-09-26T21:54:37.246Z,2.90
2022-09-26T21:56:49.475Z,3.03
2022-09-26T21:58:51.646Z,3.70
2022-09-26T22:00:53.687Z,4.53
2022-09-26T22:02:59.580Z,6.60
2022-09-26T22:05:01.396Z,6.10
2022-09-26T22:07:03.111Z,5.90
2022-09-26T22:09:04.907Z,7.47
2022-09-26T22:11:09.128Z,8.17
2022-09-26T22:13:10.889Z,8.07
2022-09-26T22:15:13.022Z,9.60
2022-09-26T22:17:15.009Z,5.60
2022-09-26T22:19:17.011Z,9.00
2022-09-26T22:21:19.002Z,8.30
2022-09-26T22:23:21.781Z,6.53
2022-09-26T22:25:23.421Z,7.20
2022-09-26T22:27:25.867Z,5.50
2022-09-26T22:29:27.617Z,5.70
2022-09-26T22:31:29.385Z,5.23
2022-09-26T22:33:32.961Z,4.40
2022-09-26T22:35:36.001Z,3.60
2022-09-26T22:37:39.276Z,3.23
2022-09-26T22:39:41.359Z,2.90
2022-09-26T22:41:43.039Z,3.00
2022-09-26T22:43:45.142Z,2.60
2022-09-26T22:45:46.845Z,2.53
2022-09-26T22:47:48.560Z,1.90
2022-09-26T22:49:50.323Z,2.40
2022-09-26T22:51:52.751Z,2.10
2022-09-26T22:53:54.518Z,1.93
2022-09-26T22:55:57.492Z,2.20
2022-09-26T22:57:59.185Z,1.50
2022-09-26T23:00:01.870Z,1.87
2022-09-26T23:02:06.014Z,1.53
2022-09-26T23:04:08.044Z,1.80
2022-09-26T23:06:11.027Z,1.50
2022-09-26T23:08:13.510Z,1.90
2022-09-26T23:10:15.289Z,1.73
2022-09-26T23:12:17.076Z,1.70
2022-09-26T23:14:18.825Z,1.57
2022-09-26T23:16:24.309Z,1.90
2022-09-26T23:18:27.089Z,1.80
2022-09-26T23:20:28.927Z,1.60
2022-09-26T23:22:30.821Z,1.83
2022-09-26T23:24:32.505Z,1.60
2022-09-26T23:26:34.870Z,1.70
2022-09-26T23:28:36.954Z,1.80
2022-09-26T23:30:40.049Z,1.80
2022-09-26T23:32:41.789Z,1.57
2022-09-26T23:34:43.507Z,1.80
2022-09-26T23:36:45.149Z,1.60
2022-09-26T23:38:47.459Z,2.00
2022-09-26T23:40:49.191Z,1.80
2022-09-26T23:42:51.214Z,1.80
2022-09-26T23:44:53.342Z,1.43
2022-09-26T23:46:55.525Z,1.70
2022-09-26T23:48:57.234Z,1.60
2022-09-26T23:50:59.246Z,1.83
2022-09-26T23:53:06.316Z,1.70
2022-09-26T23:55:08.757Z,1.60
2022-09-26T23:57:11.110Z,2.17
2022-09-26T23:59:13.320Z,1.40
